createdAt,value
2023-04-19T00:01:28.766Z,10.05
2023-04-19T00:03:57.693Z,10.07
2023-04-19T00:06:26.397Z,10.07
2023-04-19T00:08:55.131Z,10.07
2023-04-19T00:11:24.644Z,10.06
2023-04-19T00:13:52.965Z,10.03
2023-04-19T00:16:21.822Z,9.95
2023-04-19T00:18:50.308Z,9.87
2023-04-19T00:21:18.765Z,9.81
2023-04-19T00:23:47.462Z,9.81
2023-04-19T00:26:18.291Z,9.81
2023-04-19T00:28:49.037Z,9.84
2023-04-19T00:31:17.685Z,9.87
2023-04-19T00:33:46.391Z,9.90
2023-04-19T00:36:14.875Z,9.91
2023-04-19T00:38:43.525Z,9.91
2023-04-19T00:41:12.247Z,9.86
2023-04-19T00:43:40.852Z,9.80
2023-04-19T00:46:09.393Z,9.77
2023-04-19T00:48:37.932Z,9.76
2023-04-19T00:51:06.804Z,9.78
2023-04-19T00:53:36.096Z,9.80
2023-04-19T00:56:05.423Z,9.81
2023-04-19T00:58:33.949Z,9.82
2023-04-19T01:01:02.661Z,9.82
2023-04-19T01:03:32.032Z,9.82
2023-04-19T01:06:00.652Z,9.82
2023-04-19T01:08:29.170Z,9.81
2023-04-19T01:10:58.009Z,9.80
2023-04-19T01:13:28.236Z,9.79
2023-04-19T01:15:56.456Z,9.78
2023-04-19T01:18:26.023Z,9.78
2023-04-19T01:20:54.701Z,9.78
2023-04-19T01:23:23.401Z,9.76
2023-04-19T01:25:52.585Z,9.70
2023-04-19T01:28:20.970Z,9.60
2023-04-19T01:30:51.541Z,9.48
2023-04-19T01:33:21.110Z,9.37
2023-04-19T01:35:49.524Z,9.28
2023-04-19T01:38:18.063Z,9.21
2023-04-19T01:40:46.542Z,9.17
2023-04-19T01:43:17.636Z,9.18
2023-04-19T01:45:46.394Z,9.17
2023-04-19T01:48:14.889Z,9.15
2023-04-19T01:50:43.468Z,9.12
2023-04-19T01:53:12.649Z,9.09
2023-04-19T01:55:41.331Z,9.03
2023-04-19T01:58:10.107Z,8.98
2023-04-19T02:00:38.727Z,8.89
2023-04-19T02:03:07.848Z,8.80
2023-04-19T02:05:36.414Z,8.72
2023-04-19T02:08:05.284Z,8.66
2023-04-19T02:10:33.646Z,8.60
2023-04-19T02:13:02.123Z,8.57
2023-04-19T02:15:30.910Z,8.57
2023-04-19T02:18:00.754Z,8.60
2023-04-19T02:20:29.651Z,8.67
2023-04-19T02:22:58.099Z,8.73
2023-04-19T02:25:26.584Z,8.78
2023-04-19T02:27:55.294Z,8.85
2023-04-19T02:30:24.184Z,8.90
2023-04-19T02:32:52.758Z,8.94
2023-04-19T02:35:21.738Z,8.97
2023-04-19T02:37:50.213Z,9.01
2023-04-19T02:40:21.423Z,9.06
2023-04-19T02:42:49.989Z,9.09
2023-04-19T02:45:18.661Z,9.14
2023-04-19T02:47:48.220Z,9.17
2023-04-19T02:50:17.251Z,9.17
2023-04-19T02:52:49.212Z,9.15
2023-04-19T02:55:17.997Z,9.14
2023-04-19T02:57:46.972Z,9.14
2023-04-19T03:00:16.370Z,9.14
2023-04-19T03:02:51.679Z,9.16
2023-04-19T03:05:20.505Z,9.16
2023-04-19T03:07:49.492Z,9.16
2023-04-19T03:10:18.496Z,9.13
2023-04-19T03:12:47.189Z,9.08
2023-04-19T03:15:16.479Z,9.01
2023-04-19T03:17:45.081Z,8.94
2023-04-19T03:20:14.148Z,8.89
2023-04-19T03:22:42.642Z,8.83
2023-04-19T03:25:13.837Z,8.79
2023-04-19T03:27:45.431Z,8.75
2023-04-19T03:30:15.184Z,8.73
2023-04-19T03:32:46.428Z,8.70
2023-04-19T03:35:15.058Z,8.67
2023-04-19T03:37:43.656Z,8.65
2023-04-19T03:40:12.740Z,8.62
2023-04-19T03:42:41.533Z,8.53
2023-04-19T03:45:19.204Z,8.43
2023-04-19T03:47:48.813Z,8.33
2023-04-19T03:50:17.513Z,8.23
2023-04-19T03:52:47.635Z,8.17
2023-04-19T03:55:16.433Z,8.14
2023-04-19T03:57:44.885Z,8.11
2023-04-19T04:00:19.882Z,8.05
2023-04-19T04:02:51.027Z,8.03
2023-04-19T04:05:20.147Z,8.01
2023-04-19T04:07:49.641Z,8.00
2023-04-19T04:10:18.113Z,8.00
2023-04-19T04:12:46.674Z,8.03
2023-04-19T04:15:19.286Z,8.06
2023-04-19T04:17:51.366Z,8.12
2023-04-19T04:20:20.754Z,8.22
2023-04-19T04:22:49.178Z,8.30
2023-04-19T04:25:19.972Z,8.41
